Time;durP1;ratioP1;P1;durP2;ratioP2;P2;SDS_P1;SDS_P2;PMS_P1;PMS_P2;Temp;Humidity;BMP_temperature;BMP_pressure;BME280_temperature;BME280_humidity;BME280_pressure;Samples;Min_cycle;Max_cycle;Signal;HPM_P1;HPM_P2
2022/05/25 00:02:07;;;;;;;58.50;53.50;;;;;;;13.84;100.00;100946.84;5026889;28;20380;-82
2022/05/25 00:04:35;;;;;;;67.13;61.22;;;;;;;13.84;100.00;100960.19;5021304;28;20467;-81
2022/05/25 00:07:03;;;;;;;65.00;58.78;;;;;;;14.06;100.00;100973.91;5024091;28;20048;-82
2022/05/25 00:09:33;;;;;;;77.38;70.85;;;;;;;13.91;100.00;100968.91;5026099;28;20054;-82
2022/05/25 00:12:02;;;;;;;74.85;68.50;;;;;;;14.30;100.00;100959.63;5025081;28;20563;-81
2022/05/25 00:14:28;;;;;;;83.38;76.65;;;;;;;14.12;100.00;100963.13;5021073;28;20482;-82
2022/05/25 00:16:58;;;;;;;61.55;56.03;;;;;;;14.04;100.00;100960.78;5018170;28;20053;-82
2022/05/25 00:22:24;;;;;;;53.67;48.90;;;;;;;14.13;100.00;100969.28;5015660;28;20065;-81
2022/05/25 00:24:56;;;;;;;48.55;44.17;;;;;;;14.32;100.00;100965.59;5027226;28;20065;-82
2022/05/25 00:27:25;;;;;;;48.45;44.03;;;;;;;14.37;100.00;100964.91;5021888;28;20393;-82
2022/05/25 00:29:52;;;;;;;47.95;43.65;;;;;;;14.21;100.00;100966.31;5021386;28;20173;-82
2022/05/25 00:32:29;;;;;;;45.28;41.20;;;;;;;13.47;100.00;100976.13;5024481;28;20107;-81
2022/05/25 00:34:57;;;;;;;50.17;45.72;;;;;;;13.42;100.00;100986.63;5022570;28;20046;-82
2022/05/25 00:37:26;;;;;;;51.33;46.45;;;;;;;13.77;100.00;100978.94;5025360;28;20470;-81
2022/05/25 00:39:53;;;;;;;59.58;54.33;;;;;;;13.68;100.00;100989.06;5027143;28;20444;-83
2022/05/25 00:42:22;;;;;;;57.72;52.42;;;;;;;13.82;100.00;100991.59;5027086;28;20053;-86
2022/05/25 00:44:54;;;;;;;59.35;54.10;;;;;;;14.01;100.00;100987.09;5026061;28;20061;-81
2022/05/25 00:50:23;;;;;;;50.08;45.47;;;;;;;13.22;100.00;100995.59;5023165;28;20139;-82
2022/05/25 00:52:51;;;;;;;54.67;49.75;;;;;;;13.58;100.00;101002.09;5026568;28;20049;-82
2022/05/25 00:55:30;;;;;;;58.88;53.60;;;;;;;13.79;100.00;101002.72;5019340;28;20053;-82
2022/05/25 00:58:05;;;;;;;53.35;48.75;;;;;;;13.93;100.00;101005.06;5019598;28;20054;-82
2022/05/25 01:00:34;;;;;;;52.25;47.58;;;;;;;13.89;100.00;101006.53;5017682;28;20490;-81
2022/05/25 01:03:10;;;;;;;51.58;47.15;;;;;;;13.61;100.00;101019.53;5025431;28;20084;-82
2022/05/25 01:05:59;;;;;;;53.28;48.38;;;;;;;13.77;100.00;101012.78;5020369;28;20142;-84
2022/05/25 01:08:44;;;;;;;53.17;48.08;;;;;;;14.00;100.00;101007.66;5022881;28;20049;-82
2022/05/25 01:11:34;;;;;;;48.95;44.45;;;;;;;13.78;100.00;101007.25;5025103;28;20049;-82
2022/05/25 01:14:31;;;;;;;53.88;48.53;;;;;;;13.87;100.00;101011.28;5023669;28;20049;-82
2022/05/25 01:17:07;;;;;;;48.38;43.53;;;;;;;13.87;100.00;101008.59;5019946;28;20053;-82
2022/05/25 01:20:13;;;;;;;49.58;44.78;;;;;;;14.07;100.00;101007.56;5014829;28;20045;-81
2022/05/25 01:23:08;;;;;;;46.65;42.55;;;;;;;14.08;100.00;100999.34;5022622;28;20388;-82
2022/05/25 01:26:11;;;;;;;47.33;43.13;;;;;;;14.09;100.00;100998.31;5019723;28;20046;-81
2022/05/25 01:29:09;;;;;;;48.28;43.97;;;;;;;14.10;100.00;101001.78;5027099;28;20397;-81
2022/05/25 01:31:49;;;;;;;47.50;43.20;;;;;;;14.16;100.00;100995.56;5023135;28;20049;-80
2022/05/25 01:34:32;;;;;;;45.75;41.83;;;;;;;14.05;100.00;100993.66;5031985;28;20052;-81
2022/05/25 01:37:09;;;;;;;52.80;48.28;;;;;;;14.03;100.00;101007.22;5022650;28;20167;-82
2022/05/25 01:39:48;;;;;;;51.72;47.33;;;;;;;13.92;100.00;101003.44;5023807;28;20050;-82
2022/05/25 01:42:22;;;;;;;52.30;47.90;;;;;;;13.75;100.00;100997.03;5025019;28;20060;-83
2022/05/25 01:44:56;;;;;;;53.38;48.78;;;;;;;13.83;100.00;100995.91;5027782;28;20410;-82
2022/05/25 01:47:28;;;;;;;52.70;48.30;;;;;;;13.79;100.00;100998.19;5020427;28;20057;-81
2022/05/25 01:50:04;;;;;;;50.97;46.40;;;;;;;13.95;100.00;100996.84;5031776;28;20119;-81
2022/05/25 01:52:43;;;;;;;48.38;44.10;;;;;;;13.91;100.00;100983.09;5027641;28;20124;-81
2022/05/25 01:55:22;;;;;;;45.28;40.88;;;;;;;13.89;100.00;100979.84;5026438;28;20076;-82
2022/05/25 01:58:03;;;;;;;40.83;37.40;;;;;;;13.96;100.00;100990.44;5022272;28;20053;-82
2022/05/25 02:00:34;;;;;;;40.95;37.30;;;;;;;14.16;100.00;100992.88;5130759;23;20049;-78
2022/05/25 02:06:03;;;;;;;46.33;42.60;;;;;;;13.14;100.00;101001.19;4993313;28;20152;-80
2022/05/25 02:08:41;;;;;;;51.63;47.63;;;;;;;13.48;100.00;100999.91;4992709;28;20466;-80
2022/05/25 02:11:16;;;;;;;52.60;47.97;;;;;;;13.59;100.00;101016.28;4992223;28;20133;-79
2022/05/25 02:13:53;;;;;;;49.67;45.50;;;;;;;13.38;100.00;101015.59;4991668;28;20050;-79
2022/05/25 02:16:31;;;;;;;46.38;42.38;;;;;;;13.37;100.00;101007.81;4991760;28;20054;-80
2022/05/25 02:19:06;;;;;;;49.40;45.13;;;;;;;13.36;100.00;101014.19;4993153;28;20050;-79
2022/05/25 02:21:42;;;;;;;47.53;43.38;;;;;;;13.13;100.00;101028.88;4992692;28;20054;-80
2022/05/25 02:24:16;;;;;;;47.22;43.33;;;;;;;13.28;100.00;101028.59;4993019;28;20058;-78
2022/05/25 02:26:48;;;;;;;48.60;44.65;;;;;;;13.34;100.00;101026.91;4992894;28;20046;-79
2022/05/25 02:29:20;;;;;;;47.72;43.35;;;;;;;13.34;100.00;101017.06;4990409;28;20073;-79
2022/05/25 02:31:51;;;;;;;42.22;38.45;;;;;;;12.70;100.00;101020.69;4992702;28;20051;-77
2022/05/25 02:34:21;;;;;;;47.78;43.53;;;;;;;12.54;100.00;101024.69;4992641;28;20108;-79
2022/05/25 02:36:50;;;;;;;52.00;47.33;;;;;;;12.61;100.00;101028.94;4993772;28;20060;-78
2022/05/25 02:39:17;;;;;;;48.95;45.08;;;;;;;13.11;100.00;101035.47;4992769;28;20546;-78
2022/05/25 02:41:49;;;;;;;48.42;44.55;;;;;;;12.31;100.00;101030.47;4992355;28;20046;-80
2022/05/25 02:44:16;;;;;;;48.65;44.85;;;;;;;12.54;100.00;101038.00;4990791;28;20112;-78
2022/05/25 02:46:43;;;;;;;45.63;41.85;;;;;;;12.98;100.00;101031.00;4996449;28;20054;-79
2022/05/25 02:49:10;;;;;;;41.70;38.13;;;;;;;12.96;100.00;101038.41;4996480;28;20057;-78
2022/05/25 02:51:39;;;;;;;39.33;35.97;;;;;;;12.68;100.00;101046.72;4996530;28;20132;-79
2022/05/25 02:54:06;;;;;;;41.53;38.03;;;;;;;12.58;100.00;101042.69;4996199;28;20479;-79
2022/05/25 02:56:33;;;;;;;40.65;37.35;;;;;;;12.77;100.00;101048.97;4994440;28;20105;-79
2022/05/25 02:59:01;;;;;;;41.28;37.88;;;;;;;12.78;100.00;101047.94;4996192;28;20116;-79
2022/05/25 03:01:28;;;;;;;41.08;37.65;;;;;;;12.75;100.00;101044.88;4996595;28;20082;-80
2022/05/25 03:03:55;;;;;;;43.38;39.78;;;;;;;13.03;100.00;101052.53;4995928;28;20129;-79
2022/05/25 03:06:22;;;;;;;41.30;37.90;;;;;;;13.11;100.00;101051.47;4996779;28;20124;-79
2022/05/25 03:08:50;;;;;;;42.80;39.35;;;;;;;13.24;100.00;101040.69;4995774;28;20120;-79
2022/05/25 03:11:17;;;;;;;43.78;40.33;;;;;;;12.91;100.00;101048.91;4996346;28;20065;-80
2022/05/25 03:13:47;;;;;;;48.08;43.95;;;;;;;13.14;100.00;101040.38;4995906;28;20495;-80
2022/05/25 03:16:15;;;;;;;44.85;41.35;;;;;;;13.12;100.00;101045.09;4996354;28;20097;-79
2022/05/25 03:18:42;;;;;;;52.85;48.55;;;;;;;13.17;100.00;101040.75;4996581;28;20046;-79
2022/05/25 03:21:10;;;;;;;52.17;47.97;;;;;;;12.66;100.00;101046.16;4995246;28;20042;-79
2022/05/25 03:23:37;;;;;;;58.83;54.42;;;;;;;12.88;100.00;101052.00;4995718;28;20087;-79
2022/05/25 03:26:05;;;;;;;51.97;47.80;;;;;;;13.24;100.00;101048.69;4995729;28;20065;-84
2022/05/25 03:28:32;;;;;;;51.70;47.72;;;;;;;13.36;100.00;101044.34;4994396;28;20112;-79
2022/05/25 03:30:59;;;;;;;51.83;47.90;;;;;;;13.55;100.00;101049.75;4995834;28;20439;-82
2022/05/25 03:33:26;;;;;;;53.10;48.53;;;;;;;13.61;100.00;101052.34;4996262;28;20116;-81
2022/05/25 03:35:53;;;;;;;47.15;43.70;;;;;;;13.62;100.00;101061.19;4996138;28;20485;-82
2022/05/25 03:38:20;;;;;;;47.33;43.83;;;;;;;14.04;100.00;101064.94;4995735;28;20060;-81
2022/05/25 03:40:47;;;;;;;44.70;41.28;;;;;;;14.31;100.00;101067.31;4995818;28;20394;-80
2022/05/25 03:43:19;;;;;;;43.70;40.33;;;;;;;14.28;100.00;101076.63;4996485;28;20054;-81
2022/05/25 03:45:46;;;;;;;44.03;40.60;;;;;;;14.54;100.00;101080.06;4996181;28;20053;-81
2022/05/25 03:48:14;;;;;;;45.97;42.38;;;;;;;14.55;100.00;101071.81;4995997;28;20473;-83
2022/05/25 03:50:42;;;;;;;44.35;40.80;;;;;;;14.43;100.00;101076.22;4995555;28;20050;-80
2022/05/25 03:53:12;;;;;;;44.08;40.63;;;;;;;14.23;100.00;101087.16;4988391;28;20059;-81
2022/05/25 03:58:56;;;;;;;40.28;37.35;;;;;;;14.49;100.00;101079.88;4992097;28;20129;-81
2022/05/25 04:01:35;;;;;;;40.33;37.33;;;;;;;14.57;100.00;101079.63;4984851;28;20048;-81
2022/05/25 04:04:16;;;;;;;38.58;35.20;;;;;;;14.58;100.00;101083.91;4973525;28;20061;-81
2022/05/25 04:06:43;;;;;;;40.03;36.90;;;;;;;17.52;100.00;101087.47;4965831;28;20057;-82
2022/05/25 04:09:37;;;;;;;36.88;34.28;;;;;;;15.37;100.00;101086.59;4975775;28;20054;-82
2022/05/25 04:12:34;;;;;;;40.22;36.55;;;;;;;15.07;100.00;101076.75;4971168;28;20125;-85
2022/05/25 04:15:21;;;;;;;40.45;37.55;;;;;;;14.85;100.00;101095.09;4969091;28;20391;-81
2022/05/25 04:18:14;;;;;;;44.38;41.20;;;;;;;15.17;100.00;101090.38;4978307;28;20134;-82
2022/05/25 04:26:28;;;;;;;44.90;41.70;;;;;;;15.37;100.00;101084.75;4908366;29;20512;-83
2022/05/25 04:28:55;;;;;;;41.53;38.42;;;;;;;15.00;100.00;101082.16;4974037;28;20477;-82
2022/05/25 04:31:23;;;;;;;47.65;44.15;;;;;;;15.22;100.00;101081.66;4984776;28;20462;-82
2022/05/25 04:33:51;;;;;;;51.10;47.70;;;;;;;15.36;100.00;101080.41;4985588;28;20105;-80
2022/05/25 04:36:18;;;;;;;49.25;45.85;;;;;;;15.48;100.00;101086.63;4979933;28;20046;-81
2022/05/25 04:38:45;;;;;;;50.42;46.80;;;;;;;15.70;100.00;101083.44;4973770;28;20058;-81
2022/05/25 04:41:13;;;;;;;47.33;43.90;;;;;;;15.88;100.00;101088.69;4975457;28;20085;-81
2022/05/25 04:43:40;;;;;;;48.22;44.58;;;;;;;15.87;100.00;101081.72;4982306;28;20078;-82
2022/05/25 04:46:12;;;;;;;54.63;50.78;;;;;;;15.85;100.00;101085.66;4983247;28;20082;-79
2022/05/25 04:48:44;;;;;;;49.58;46.15;;;;;;;16.06;100.00;101095.81;4978524;28;20050;-81
2022/05/25 04:51:14;;;;;;;44.60;41.55;;;;;;;16.07;100.00;101088.56;4978617;28;20574;-80
2022/05/25 04:53:42;;;;;;;42.88;39.85;;;;;;;16.19;100.00;101090.22;4978547;28;20101;-81
2022/05/25 04:58:56;;;;;;;44.75;41.75;;;;;;;16.29;100.00;101091.50;4968801;28;20057;-82
2022/05/25 05:01:23;;;;;;;41.92;39.13;;;;;;;16.34;100.00;101088.91;4991115;28;20046;-80
2022/05/25 05:03:53;;;;;;;42.53;39.72;;;;;;;16.36;100.00;101089.50;5001254;28;20184;-81
2022/05/25 05:06:21;;;;;;;39.58;37.00;;;;;;;16.39;100.00;101092.50;5002471;28;20050;-81
2022/05/25 05:08:48;;;;;;;41.05;38.25;;;;;;;16.45;100.00;101096.94;4997669;28;20046;-80
2022/05/25 05:11:18;;;;;;;42.53;39.53;;;;;;;16.58;100.00;101095.88;5000539;28;20046;-82
2022/05/25 05:13:45;;;;;;;40.97;38.15;;;;;;;16.55;100.00;101095.53;4996520;28;20050;-81
2022/05/25 05:16:15;;;;;;;41.45;38.35;;;;;;;17.40;100.00;101102.84;5006213;28;20510;-80
2022/05/25 05:18:43;;;;;;;39.42;37.03;;;;;;;16.74;100.00;101094.31;5000184;28;20050;-80
2022/05/25 05:21:12;;;;;;;41.08;38.17;;;;;;;16.80;100.00;101100.66;5002066;28;20462;-85
2022/05/25 05:23:40;;;;;;;40.08;37.35;;;;;;;16.84;100.00;101097.22;4994453;28;20057;-82
2022/05/25 05:26:08;;;;;;;37.63;35.13;;;;;;;17.15;100.00;101100.50;5000166;28;20042;-81
2022/05/25 05:28:43;;;;;;;36.47;33.97;;;;;;;17.33;100.00;101097.59;5002089;28;20053;-80
2022/05/25 05:31:11;;;;;;;40.25;37.17;;;;;;;17.33;100.00;101094.13;5001042;28;20053;-82
2022/05/25 05:33:51;;;;;;;38.78;35.90;;;;;;;17.42;100.00;101102.59;4998445;28;20391;-79
2022/05/25 05:36:41;;;;;;;35.00;32.65;;;;;;;17.37;100.00;101104.16;4998318;28;20477;-80
2022/05/25 05:39:11;;;;;;;33.83;31.42;;;;;;;17.60;100.00;101100.50;4995581;28;20061;-82
2022/05/25 05:41:42;;;;;;;32.67;30.23;;;;;;;17.38;100.00;101105.75;5001910;28;20058;-81
2022/05/25 05:44:13;;;;;;;33.92;31.63;;;;;;;17.61;100.00;101106.69;4996106;28;20046;-82
2022/05/25 05:46:42;;;;;;;32.88;30.73;;;;;;;17.87;100.00;101110.63;5001529;28;20457;-81
2022/05/25 05:49:11;;;;;;;35.85;33.30;;;;;;;18.05;100.00;101123.00;5002836;28;20410;-81
2022/05/25 05:51:42;;;;;;;36.45;34.00;;;;;;;17.96;100.00;101119.91;5002266;28;20051;-81
2022/05/25 05:54:09;;;;;;;34.10;31.63;;;;;;;18.20;100.00;101119.72;4989772;28;20046;-82
2022/05/25 05:56:36;;;;;;;36.75;34.20;;;;;;;18.12;100.00;101112.06;4993885;28;20057;-84
2022/05/25 05:59:04;;;;;;;35.80;33.33;;;;;;;18.28;100.00;101116.63;4993749;28;20124;-83
2022/05/25 06:01:31;;;;;;;35.60;33.25;;;;;;;18.49;100.00;101120.41;4993599;28;20054;-80
2022/05/25 06:03:58;;;;;;;36.05;33.00;;;;;;;18.49;100.00;101121.22;4993729;28;20058;-82
2022/05/25 06:06:30;;;;;;;33.70;31.10;;;;;;;18.57;100.00;101121.84;4993905;28;20116;-83
2022/05/25 06:09:04;;;;;;;35.40;32.80;;;;;;;18.75;100.00;101130.44;4993901;28;20388;-82
2022/05/25 06:27:39;;;;;;;35.72;33.08;;;;;;;19.91;100.00;101114.94;5001535;28;20120;-82
2022/05/25 06:30:45;;;;;;;35.05;32.55;;;;;;;19.71;100.00;101101.31;4998145;28;20046;-80
2022/05/25 06:33:31;;;;;;;31.98;29.88;;;;;;;19.72;100.00;101114.50;5006384;28;20394;-82
2022/05/25 06:36:24;;;;;;;31.70;29.50;;;;;;;19.93;100.00;101106.59;5006325;28;20069;-81
2022/05/25 06:48:14;;;;;;;34.13;31.88;;;;;;;20.67;100.00;101100.28;4979989;28;20057;-82
2022/05/25 06:53:57;;;;;;;32.92;30.90;;;;;;;20.63;100.00;101105.38;5002546;28;20057;-80
2022/05/25 06:56:25;;;;;;;33.15;31.15;;;;;;;20.81;100.00;101107.63;4983388;28;20050;-80
2022/05/25 06:58:53;;;;;;;35.78;33.78;;;;;;;20.97;100.00;101100.41;4996869;28;20054;-81
2022/05/25 07:01:21;;;;;;;35.20;33.00;;;;;;;21.25;100.00;101104.50;4996772;28;20136;-80
2022/05/25 07:03:54;;;;;;;30.75;29.00;;;;;;;21.35;100.00;101114.50;4994329;28;20125;-83
2022/05/25 07:06:24;;;;;;;34.22;31.60;;;;;;;21.50;100.00;101106.44;4994541;28;20487;-83
2022/05/25 07:08:51;;;;;;;37.40;34.90;;;;;;;21.64;100.00;101097.81;4997260;28;20089;-83
2022/05/25 07:11:18;;;;;;;36.55;34.35;;;;;;;21.87;100.00;101102.66;4996860;28;20122;-83
2022/05/25 07:14:02;;;;;;;34.85;32.13;;;;;;;21.91;100.00;101102.94;4995923;28;20096;-83
2022/05/25 07:16:58;;;;;;;36.20;33.72;;;;;;;22.02;100.00;101111.81;4987729;28;20042;-83
2022/05/25 07:19:32;;;;;;;37.30;35.20;;;;;;;22.21;100.00;101112.91;4982629;28;20062;-84
2022/05/25 07:22:20;;;;;;;37.47;35.45;;;;;;;22.06;100.00;101118.31;4996584;28;20042;-84
2022/05/25 07:28:43;;;;;;;32.42;30.63;;;;;;;22.31;100.00;101115.59;4962253;28;20050;-82
2022/05/25 07:34:48;;;;;;;33.45;31.08;;;;;;;22.85;100.00;101104.00;4886795;29;20056;-83
2022/05/25 07:37:46;;;;;;;38.90;36.90;;;;;;;23.07;100.00;101106.34;4889171;29;20055;-81
2022/05/25 07:40:21;;;;;;;36.10;34.30;;;;;;;23.29;100.00;101108.66;4895914;29;20516;-83
2022/05/25 07:42:58;;;;;;;36.47;34.67;;;;;;;23.14;100.00;101105.22;4902125;29;20552;-82
2022/05/25 07:45:25;;;;;;;33.67;31.98;;;;;;;23.18;100.00;101106.28;4941704;28;20062;-82
2022/05/25 07:48:18;;;;;;;32.67;30.88;;;;;;;23.43;100.00;101105.31;5004555;28;20466;-83
2022/05/25 07:50:46;;;;;;;;;;;;;;;23.68;100.00;101102.38;4987794;28;20057;-81
2022/05/25 07:56:01;;;;;;;28.30;26.50;;;;;;;23.46;100.00;101099.31;5002344;28;20057;-82
2022/05/25 07:58:28;;;;;;;30.38;28.52;;;;;;;23.62;100.00;101100.00;5006497;28;20169;-82
2022/05/25 08:00:57;;;;;;;27.95;26.20;;;;;;;23.65;100.00;101102.16;5007104;28;20057;-81
2022/05/25 08:06:11;;;;;;;25.58;24.17;;;;;;;23.53;100.00;101105.22;5005962;28;20108;-83
2022/05/25 08:08:38;;;;;;;27.85;25.85;;;;;;;23.87;100.00;101104.41;4996374;28;20050;-83
2022/05/25 08:11:09;;;;;;;30.42;28.73;;;;;;;23.90;100.00;101109.28;5002318;28;20058;-82
2022/05/25 08:13:38;;;;;;;31.20;29.55;;;;;;;24.30;100.00;101115.38;4996164;28;20108;-81
2022/05/25 08:16:09;;;;;;;28.48;26.67;;;;;;;24.09;100.00;101117.53;4996135;28;20058;-82
2022/05/25 08:18:47;;;;;;;26.77;25.40;;;;;;;24.11;100.00;101107.97;4991344;28;20042;-81
2022/05/25 08:21:24;;;;;;;25.83;24.38;;;;;;;24.37;100.00;101105.00;4986869;28;20061;-82
2022/05/25 08:23:58;;;;;;;25.48;24.20;;;;;;;24.24;100.00;101103.78;4995236;28;20400;-83
2022/05/25 08:26:28;;;;;;;27.23;25.80;;;;;;;24.16;100.00;101105.22;4998204;28;20046;-82
2022/05/25 08:29:17;;;;;;;27.13;25.50;;;;;;;24.24;100.00;101101.06;4995444;28;20042;-85
2022/05/25 08:31:44;;;;;;;26.67;25.17;;;;;;;24.03;100.00;101114.03;4980473;28;20387;-83
2022/05/25 08:34:15;;;;;;;28.35;26.40;;;;;;;24.54;100.00;101110.81;4994801;28;20042;-83
2022/05/25 08:36:48;;;;;;;28.05;26.45;;;;;;;24.74;100.00;101100.78;4994087;28;20532;-83
2022/05/25 08:39:17;;;;;;;26.30;24.90;;;;;;;24.60;100.00;101101.50;4994611;28;20058;-84
2022/05/25 08:42:11;;;;;;;26.52;25.17;;;;;;;25.09;100.00;101104.91;4994738;28;20486;-82
2022/05/25 08:44:38;;;;;;;27.20;25.88;;;;;;;24.85;100.00;101115.84;4994495;28;20491;-83
2022/05/25 08:47:08;;;;;;;29.02;26.83;;;;;;;24.88;100.00;101115.25;4994690;28;20640;-83
2022/05/25 08:49:37;;;;;;;29.23;27.63;;;;;;;24.68;100.00;101117.13;4994392;28;20430;-83
2022/05/25 08:52:19;;;;;;;33.05;31.35;;;;;;;25.01;100.00;101119.16;4995024;28;20563;-83
2022/05/25 08:54:55;;;;;;;31.48;29.52;;;;;;;25.02;100.00;101118.84;4994796;28;20078;-81
2022/05/25 08:57:28;;;;;;;29.40;27.75;;;;;;;25.34;100.00;101118.16;4987600;28;20387;-81
2022/05/25 09:00:07;;;;;;;27.65;26.05;;;;;;;25.11;100.00;101116.28;4999205;28;20450;-82
2022/05/25 09:02:52;;;;;;;27.67;26.27;;;;;;;25.39;100.00;101113.72;4994516;28;20046;-83
2022/05/25 09:08:39;;;;;;;29.00;27.50;;;;;;;25.48;100.00;101103.81;4994349;28;20094;-81
2022/05/25 09:11:38;;;;;;;29.92;28.23;;;;;;;25.99;100.00;101102.94;4994765;28;20058;-84
2022/05/25 09:14:26;;;;;;;29.27;27.65;;;;;;;25.73;100.00;101106.09;4994596;28;20077;-81
2022/05/25 09:17:23;;;;;;;29.58;27.98;;;;;;;25.80;100.00;101100.25;4995138;28;20086;-82
2022/05/25 09:19:55;;;;;;;29.67;28.17;;;;;;;25.80;100.00;101103.78;4983600;28;20438;-86
2022/05/25 09:28:54;;;;;;;26.88;25.38;;;;;;;25.88;100.00;101110.50;4990441;28;20052;-83
2022/05/25 09:31:57;;;;;;;27.08;25.48;;;;;;;26.23;89.07;101111.75;4991413;28;20058;-83
2022/05/25 09:35:13;;;;;;;27.88;26.50;;;;;;;26.59;100.00;101112.97;4992933;28;20128;-81
2022/05/25 09:45:20;;;;;;;29.90;28.20;;;;;;;26.40;83.93;101097.53;4965079;28;20112;-83
2022/05/25 09:54:33;;;;;;;30.00;28.40;;;;;;;26.91;91.40;101101.13;4820863;29;20062;-85
2022/05/25 09:57:07;;;;;;;28.67;27.08;;;;;;;26.73;82.62;101109.13;4812938;29;20059;-84
2022/05/25 09:59:41;;;;;;;30.25;28.45;;;;;;;26.20;84.56;101095.19;4850290;29;20053;-83
2022/05/25 10:02:26;;;;;;;28.50;26.92;;;;;;;26.35;84.46;101097.63;4858141;29;20049;-86
2022/05/25 10:05:14;;;;;;;28.90;27.23;;;;;;;26.52;91.66;101091.59;4899939;29;20118;-83
2022/05/25 10:07:51;;;;;;;28.33;26.55;;;;;;;26.65;94.21;101087.25;4937607;29;20063;-82
2022/05/25 10:10:27;;;;;;;27.67;26.27;;;;;;;27.11;83.44;101081.59;4954152;29;20059;-84
2022/05/25 10:13:17;;;;;;;33.97;32.38;;;;;;;27.60;80.16;101070.88;4982187;28;20056;-87
2022/05/25 10:15:51;;;;;;;31.45;29.75;;;;;;;27.34;69.35;101084.34;4994838;28;20502;-84
2022/05/25 10:18:35;;;;;;;29.20;27.65;;;;;;;27.08;76.30;101079.47;4994143;28;20051;-83
2022/05/25 10:21:04;;;;;;;28.95;27.45;;;;;;;27.27;71.16;101078.53;4994489;28;20489;-87
2022/05/25 10:23:32;;;;;;;27.83;26.30;;;;;;;27.17;77.47;101074.94;4978802;28;20046;-86
2022/05/25 10:26:20;;;;;;;30.35;28.65;;;;;;;27.67;69.95;101071.25;4994463;28;20054;-87
2022/05/25 10:28:57;;;;;;;30.88;28.92;;;;;;;28.20;63.64;101070.38;4997955;28;20141;-85
2022/05/25 10:37:39;;;;;;;28.25;26.52;;;;;;;26.06;78.64;101065.28;4991469;28;20044;-84
2022/05/25 10:40:21;;;;;;;27.33;25.83;;;;;;;26.70;98.09;101073.53;5003001;28;20064;-84
2022/05/25 10:43:01;;;;;;;27.83;26.27;;;;;;;27.56;75.22;101062.50;4996882;28;20458;-84
2022/05/25 10:45:51;;;;;;;27.92;26.30;;;;;;;27.62;74.95;101071.34;4992509;28;20426;-86
2022/05/25 10:48:30;;;;;;;28.05;26.38;;;;;;;27.77;69.60;101062.78;4996868;28;20039;-83
2022/05/25 10:51:10;;;;;;;29.10;27.50;;;;;;;28.07;68.84;101066.63;5001130;28;20602;-84
2022/05/25 10:54:44;;;;;;;28.85;27.20;;;;;;;28.44;65.10;101063.72;5002105;28;20550;-85
2022/05/25 10:56:45;;;;;;;30.48;28.77;;;;;;;28.41;65.35;101069.81;4999712;28;20130;-85
2022/05/25 10:59:20;;;;;;;29.80;28.20;;;;;;;28.74;61.42;101073.72;4999542;28;20046;-87
2022/05/25 11:02:04;;;;;;;29.67;27.92;;;;;;;28.69;65.88;101060.25;4987799;28;20047;-84
2022/05/25 11:05:09;;;;;;;29.50;27.50;;;;;;;28.14;64.40;101068.94;4979940;28;20042;-86
2022/05/25 11:07:39;;;;;;;29.73;27.95;;;;;;;27.86;65.67;101052.72;4985900;28;20126;-83
2022/05/25 11:10:21;;;;;;;31.00;28.77;;;;;;;28.60;69.53;101048.50;4981563;28;20054;-83
2022/05/25 11:13:09;;;;;;;29.98;28.27;;;;;;;29.00;61.36;101045.59;4978209;28;20480;-85
2022/05/25 11:15:46;;;;;;;29.30;27.70;;;;;;;29.04;58.03;101045.78;4978254;28;20042;-83
2022/05/25 11:18:36;;;;;;;28.98;27.38;;;;;;;28.24;62.39;101038.59;4985886;28;20042;-86
2022/05/25 11:21:21;;;;;;;29.73;27.95;;;;;;;26.89;76.17;101051.56;4978700;28;20054;-86
2022/05/25 11:24:02;;;;;;;30.45;28.45;;;;;;;27.49;69.43;101039.53;4977274;28;20051;-85
2022/05/25 11:26:58;;;;;;;31.57;29.87;;;;;;;27.93;72.47;101029.63;4977496;28;20058;-84
2022/05/25 11:29:37;;;;;;;30.80;28.85;;;;;;;28.50;67.75;101029.66;4975594;28;20294;-84
2022/05/25 11:32:14;;;;;;;31.20;29.48;;;;;;;27.47;70.07;101031.63;4975605;28;20144;-83
2022/05/25 11:35:00;;;;;;;27.58;25.98;;;;;;;28.25;67.16;101036.66;4976558;28;20059;-85
2022/05/25 11:37:40;;;;;;;30.02;28.33;;;;;;;28.71;67.96;101029.84;4981872;28;20134;-85
2022/05/25 11:40:41;;;;;;;29.98;28.30;;;;;;;29.28;60.25;101032.41;4976534;28;20076;-87
2022/05/25 11:43:47;;;;;;;37.72;35.30;;;;;;;28.87;63.53;101031.00;4992279;28;20046;-86
2022/05/25 11:46:21;;;;;;;38.83;36.72;;;;;;;27.70;63.82;101024.22;4922160;28;20057;-84
2022/05/25 11:49:26;;;;;;;39.70;37.55;;;;;;;29.39;61.84;101033.69;4976735;28;20163;-85
2022/05/25 11:52:03;;;;;;;38.30;35.97;;;;;;;29.27;59.86;101035.50;4970903;28;20055;-85
2022/05/25 11:54:45;;;;;;;37.50;35.50;;;;;;;29.22;58.54;101029.03;4979731;28;20082;-82
2022/05/25 11:57:26;;;;;;;39.00;36.47;;;;;;;29.90;57.42;101022.91;4968837;28;20046;-83
2022/05/25 12:00:29;;;;;;;40.65;38.28;;;;;;;27.97;62.88;101027.91;4976886;28;20054;-82
2022/05/25 12:03:39;;;;;;;38.20;36.15;;;;;;;28.99;63.75;101020.22;4898906;29;20200;-84
2022/05/25 12:06:23;;;;;;;42.05;39.85;;;;;;;29.40;63.40;101018.06;4897029;29;20045;-85
2022/05/25 12:09:07;;;;;;;44.10;41.58;;;;;;;29.61;60.77;101015.44;4898395;29;20081;-83
2022/05/25 12:11:41;;;;;;;38.92;36.80;;;;;;;29.14;64.56;101001.69;4899441;29;20490;-84
2022/05/25 12:14:36;;;;;;;38.83;36.92;;;;;;;28.71;72.09;101005.25;4961065;28;20046;-84
2022/05/25 12:17:17;;;;;;;38.60;36.50;;;;;;;29.20;64.24;101006.69;4973636;28;20492;-88
2022/05/25 12:19:45;;;;;;;38.20;36.10;;;;;;;28.61;68.56;101002.84;4966627;28;20050;-83
2022/05/25 12:22:17;;;;;;;38.80;36.78;;;;;;;27.14;69.04;100995.63;4961468;28;20063;-83
2022/05/25 12:24:50;;;;;;;;;;;;;;;28.51;75.53;100996.56;4978649;28;20061;-84
2022/05/25 12:27:21;;;;;;;37.08;34.80;;;;;;;29.31;70.60;100992.66;4978913;28;19922;-86
2022/05/25 12:29:53;;;;;;;38.67;36.42;;;;;;;29.37;62.38;100994.91;4978842;28;20488;-86
2022/05/25 12:32:43;;;;;;;37.63;35.43;;;;;;;29.36;62.14;100989.78;4969842;28;20057;-86
2022/05/25 12:35:20;;;;;;;36.80;34.80;;;;;;;29.16;62.92;100985.78;4973978;28;20302;-84
2022/05/25 12:37:51;;;;;;;36.85;34.75;;;;;;;28.16;71.95;100973.84;4966964;28;20070;-85
2022/05/25 12:40:44;;;;;;;38.90;36.70;;;;;;;29.21;72.78;100970.00;4964201;28;20055;-83
2022/05/25 12:43:44;;;;;;;39.63;37.22;;;;;;;29.84;66.66;100967.56;4972073;28;20050;-83
2022/05/25 12:48:59;;;;;;;41.58;39.28;;;;;;;29.61;64.77;100966.19;4968121;28;20053;-86
2022/05/25 12:51:36;;;;;;;41.63;39.45;;;;;;;29.21;63.97;100961.81;4977687;28;20058;-85
2022/05/25 12:54:06;;;;;;;44.33;41.83;;;;;;;29.44;65.73;100964.28;4978545;28;20423;-83
2022/05/25 12:56:47;;;;;;;43.55;41.15;;;;;;;29.21;65.19;100953.59;4963934;28;20455;-84
2022/05/25 12:59:27;;;;;;;40.75;38.58;;;;;;;29.63;64.63;100953.00;4973996;28;20476;-82
2022/05/25 13:02:13;;;;;;;41.95;39.55;;;;;;;30.09;63.32;100951.28;4991526;28;20120;-83
2022/05/25 13:04:44;;;;;;;42.25;39.75;;;;;;;29.84;62.35;100958.53;4985265;28;20114;-84
2022/05/25 13:07:39;;;;;;;41.45;39.25;;;;;;;29.65;60.56;100961.66;4996922;28;20042;-84
2022/05/25 13:10:49;;;;;;;44.90;42.33;;;;;;;28.86;62.14;100947.38;4999156;28;20050;-86
2022/05/25 13:13:28;;;;;;;29.23;27.50;;;;;;;29.20;62.83;100938.34;4985304;28;20113;-86
2022/05/25 13:15:56;;;;;;;28.85;27.15;;;;;;;29.62;67.51;100937.69;5005711;28;20056;-84
2022/05/25 13:18:55;;;;;;;29.70;27.80;;;;;;;29.68;67.77;100933.66;4998310;28;20050;-86
2022/05/25 13:21:40;;;;;;;29.35;27.40;;;;;;;29.95;68.87;100940.56;4995074;28;20050;-86